createdAt,value
2022-11-12T00:00:07.026Z,15.41
2022-11-12T00:05:10.377Z,15.46
2022-11-12T00:10:12.593Z,15.40
2022-11-12T00:15:15.122Z,15.32
2022-11-12T00:20:17.513Z,15.04
2022-11-12T00:25:19.877Z,15.15
2022-11-12T00:30:22.028Z,14.99
2022-11-12T00:35:24.272Z,14.63
2022-11-12T00:40:26.973Z,14.82
2022-11-12T00:45:29.212Z,14.76
2022-11-12T00:50:31.382Z,15.03
2022-11-12T00:55:33.706Z,14.93
2022-11-12T01:00:35.974Z,15.02
2022-11-12T01:05:38.210Z,14.96
2022-11-12T01:10:40.543Z,15.08
2022-11-12T01:15:43.580Z,15.17
2022-11-12T01:20:45.967Z,15.15
2022-11-12T01:25:48.380Z,15.06
2022-11-12T01:30:50.745Z,15.14
2022-11-12T01:35:52.923Z,15.12
2022-11-12T01:40:55.109Z,14.86
2022-11-12T01:45:57.995Z,15.12
2022-11-12T01:51:00.854Z,15.11
2022-11-12T01:56:05.957Z,15.00
2022-11-12T02:01:08.345Z,14.99
2022-11-12T02:06:14.700Z,15.00
2022-11-12T02:11:21.725Z,14.83
2022-11-12T02:16:29.629Z,15.01
2022-11-12T02:21:32.469Z,14.79
2022-11-12T02:26:37.716Z,14.87
2022-11-12T02:31:39.965Z,14.80
2022-11-12T02:36:42.297Z,14.71
2022-11-12T02:41:44.459Z,14.66
2022-11-12T02:46:46.642Z,14.70
2022-11-12T02:51:48.953Z,14.55
2022-11-12T02:56:51.140Z,14.62
2022-11-12T03:01:53.527Z,14.69
2022-11-12T03:06:55.736Z,14.57
2022-11-12T03:11:58.024Z,14.66
2022-11-12T03:17:00.344Z,14.40
2022-11-12T03:22:02.781Z,14.48
2022-11-12T03:27:04.976Z,14.52
2022-11-12T03:32:07.331Z,14.45
2022-11-12T03:37:09.977Z,14.43
2022-11-12T03:42:12.300Z,14.54
2022-11-12T03:47:14.509Z,14.50
2022-11-12T03:52:16.701Z,14.53
2022-11-12T03:57:19.029Z,14.36
2022-11-12T04:02:21.263Z,14.42
2022-11-12T04:07:41.788Z,14.45
2022-11-12T04:13:02.333Z,14.58
2022-11-12T04:18:23.102Z,14.49
2022-11-12T04:23:25.373Z,14.60
2022-11-12T04:28:27.870Z,14.35
2022-11-12T04:33:30.241Z,14.27
2022-11-12T04:38:32.421Z,14.24
2022-11-12T04:43:52.873Z,14.46
2022-11-12T04:48:55.024Z,14.36
2022-11-12T04:53:57.205Z,14.51
2022-11-12T04:58:59.551Z,14.40
2022-11-12T05:04:01.890Z,14.35
2022-11-12T05:09:04.172Z,14.32
2022-11-12T05:14:06.503Z,14.39
2022-11-12T05:37:22.533Z,13.83
2022-11-12T05:42:24.716Z,14.03
2022-11-12T05:47:27.039Z,14.06
2022-11-12T05:52:29.443Z,13.98
2022-11-12T05:57:31.634Z,13.97
2022-11-12T06:02:33.865Z,13.91
2022-11-12T06:07:36.086Z,13.95
2022-11-12T06:12:38.392Z,13.82
2022-11-12T06:17:40.581Z,13.80
2022-11-12T06:22:42.931Z,13.61
2022-11-12T06:27:45.257Z,13.53
2022-11-12T06:32:50.970Z,13.65
2022-11-12T06:37:53.364Z,13.66
2022-11-12T06:42:59.606Z,13.56
2022-11-12T06:48:01.836Z,13.43
2022-11-12T06:53:04.276Z,13.23
2022-11-12T06:58:06.544Z,13.51
2022-11-12T07:03:10.027Z,13.48
2022-11-12T07:08:12.234Z,13.30
2022-11-12T07:13:14.664Z,13.34
2022-11-12T07:18:17.011Z,13.59
2022-11-12T07:23:19.411Z,13.34
2022-11-12T07:28:21.777Z,13.60
2022-11-12T07:33:24.568Z,13.74
2022-11-12T07:38:28.128Z,13.74
2022-11-12T07:43:32.678Z,13.79
2022-11-12T07:48:35.337Z,13.69
2022-11-12T07:53:37.895Z,13.82
2022-11-12T07:58:40.718Z,13.67
2022-11-12T08:03:42.926Z,13.75
2022-11-12T08:08:45.653Z,13.78
2022-11-12T08:13:48.608Z,13.78
2022-11-12T08:18:50.991Z,13.94
2022-11-12T08:23:53.399Z,13.86
2022-11-12T08:28:55.612Z,13.97
2022-11-12T08:33:57.837Z,13.90
2022-11-12T08:39:00.170Z,13.94
2022-11-12T08:44:08.150Z,14.22
2022-11-12T08:49:10.747Z,14.01
2022-11-12T08:54:12.939Z,14.36
2022-11-12T08:59:15.185Z,14.35
2022-11-12T09:04:18.682Z,14.47
2022-11-12T09:09:21.094Z,14.56
2022-11-12T09:14:23.322Z,14.60
2022-11-12T09:19:25.539Z,14.69
2022-11-12T09:24:27.934Z,14.92
2022-11-12T09:29:30.145Z,14.87
2022-11-12T09:34:32.506Z,14.81
2022-11-12T09:39:34.687Z,14.91
2022-11-12T09:44:39.775Z,15.03
2022-11-12T09:49:50.578Z,14.96
2022-11-12T09:55:00.796Z,15.05
2022-11-12T10:00:04.015Z,14.86
2022-11-12T10:05:27.890Z,15.02
2022-11-12T10:10:49.490Z,14.91
2022-11-12T10:16:29.201Z,15.15
2022-11-12T10:21:36.627Z,15.23
2022-11-12T10:26:40.781Z,15.25
2022-11-12T10:31:43.117Z,15.39
2022-11-12T10:37:02.136Z,15.36
2022-11-12T10:42:13.369Z,15.37
2022-11-12T10:47:18.435Z,15.66
2022-11-12T10:52:25.361Z,15.69
2022-11-12T10:57:28.084Z,15.55
2022-11-12T11:02:30.504Z,15.68
2022-11-12T11:07:32.731Z,15.71
2022-11-12T11:12:35.351Z,15.55
2022-11-12T11:17:37.659Z,15.49
2022-11-12T11:22:44.906Z,15.43
2022-11-12T11:28:14.077Z,15.63
2022-11-12T11:33:25.078Z,15.58
2022-11-12T11:38:42.233Z,15.53
2022-11-12T11:43:50.478Z,15.60
2022-11-12T11:49:11.219Z,15.59
2022-11-12T11:54:44.906Z,15.36
2022-11-12T12:00:16.463Z,15.50
2022-11-12T12:05:46.656Z,15.44
2022-11-12T12:11:07.354Z,15.46
2022-11-12T12:16:23.871Z,15.38
2022-11-12T12:21:32.504Z,15.30
2022-11-12T12:26:48.607Z,15.20
2022-11-12T12:32:23.106Z,15.35
2022-11-12T12:37:57.786Z,15.00
2022-11-12T12:43:23.716Z,15.24
2022-11-12T12:48:31.586Z,15.28
2022-11-12T12:53:36.139Z,15.19
2022-11-12T12:58:41.086Z,15.26
2022-11-12T13:03:43.435Z,15.34
2022-11-12T13:08:45.850Z,15.04
2022-11-12T13:13:48.150Z,15.02
2022-11-12T13:18:53.034Z,15.01
2022-11-12T13:24:10.833Z,14.79
2022-11-12T13:29:24.982Z,15.17
2022-11-12T13:34:34.121Z,15.12
2022-11-12T13:39:36.874Z,15.19
2022-11-12T13:44:39.251Z,15.14
2022-11-12T13:49:43.649Z,15.21
2022-11-12T13:54:45.986Z,15.25
2022-11-12T13:59:48.306Z,15.16
2022-11-12T14:04:51.968Z,15.25
2022-11-12T14:10:19.879Z,14.97
2022-11-12T14:15:51.329Z,15.10
2022-11-12T14:20:53.700Z,14.96
2022-11-12T14:25:57.668Z,15.04
2022-11-12T14:31:02.092Z,15.05
2022-11-12T14:36:07.618Z,14.96
2022-11-12T14:41:16.053Z,14.96
2022-11-12T14:46:27.555Z,14.89
2022-11-12T14:51:32.502Z,14.83
2022-11-12T14:56:42.627Z,14.80
2022-11-12T15:02:29.499Z,14.75
2022-11-12T15:07:40.371Z,14.70
2022-11-12T15:12:42.984Z,14.76
2022-11-12T15:17:45.443Z,14.62
2022-11-12T15:22:54.301Z,14.63
2022-11-12T15:27:57.219Z,14.53
2022-11-12T15:33:14.453Z,14.61
2022-11-12T15:38:33.310Z,14.43
2022-11-12T15:43:37.224Z,14.40
2022-11-12T15:48:39.412Z,14.53
2022-11-12T15:53:41.649Z,14.43
2022-11-12T15:58:44.006Z,14.45
2022-11-12T16:03:46.586Z,14.56
2022-11-12T16:08:48.922Z,14.37
2022-11-12T16:13:51.221Z,14.38
2022-11-12T16:18:53.546Z,14.51
2022-11-12T16:23:55.839Z,14.44
2022-11-12T16:28:58.221Z,14.47
2022-11-12T16:34:00.554Z,14.45
2022-11-12T16:39:02.935Z,14.36
2022-11-12T16:44:05.281Z,14.36
2022-11-12T16:49:12.769Z,14.51
2022-11-12T16:54:14.961Z,14.47
2022-11-12T16:59:17.336Z,14.49
2022-11-12T17:04:19.835Z,14.36
2022-11-12T17:09:22.207Z,14.25
2022-11-12T17:14:28.313Z,14.37
2022-11-12T17:19:30.939Z,14.17
2022-11-12T17:24:33.314Z,14.30
2022-11-12T17:29:35.637Z,13.97
2022-11-12T17:34:39.914Z,14.26
2022-11-12T17:39:42.146Z,14.13
2022-11-12T17:44:46.533Z,14.09
2022-11-12T17:49:48.899Z,14.03
2022-11-12T17:54:51.265Z,14.03
2022-11-12T17:59:53.498Z,13.94
2022-11-12T18:04:55.743Z,13.85
2022-11-12T18:09:58.034Z,13.69
2022-11-12T18:15:00.302Z,13.66
2022-11-12T18:20:03.150Z,13.50
2022-11-12T18:25:05.963Z,13.38
2022-11-12T18:30:08.731Z,13.50
2022-11-12T18:35:11.220Z,13.49
2022-11-12T18:40:13.647Z,13.38
2022-11-12T18:45:16.092Z,13.46
2022-11-12T18:50:18.793Z,13.23
2022-11-12T18:55:21.643Z,13.43
2022-11-12T19:00:23.854Z,13.24
2022-11-12T19:05:26.401Z,12.92
2022-11-12T19:10:28.624Z,13.07
2022-11-12T19:15:34.376Z,12.93
2022-11-12T19:20:36.716Z,12.86
2022-11-12T19:25:39.149Z,12.71
2022-11-12T19:30:41.756Z,12.68
2022-11-12T19:35:44.363Z,12.83
2022-11-12T19:40:46.759Z,12.65
2022-11-12T19:45:49.080Z,12.56
2022-11-12T19:50:51.551Z,12.72
2022-11-12T19:55:54.110Z,12.73
2022-11-12T20:01:04.505Z,12.50
2022-11-12T20:06:09.965Z,12.60
2022-11-12T20:11:12.862Z,12.59
2022-11-12T20:16:20.970Z,12.38
2022-11-12T20:21:28.232Z,12.51
2022-11-12T20:26:30.538Z,12.30
2022-11-12T20:31:33.858Z,12.48
2022-11-12T20:36:36.308Z,12.30
2022-11-12T20:41:38.641Z,12.49
2022-11-12T20:46:41.048Z,12.42
2022-11-12T20:51:43.516Z,12.26
2022-11-12T20:56:46.405Z,12.35
2022-11-12T21:01:48.855Z,12.28
2022-11-12T21:06:51.360Z,12.27
2022-11-12T21:11:53.896Z,12.28
2022-11-12T21:16:56.264Z,12.20
2022-11-12T21:21:58.609Z,12.41
2022-11-12T21:27:01.253Z,12.12
2022-11-12T21:32:04.173Z,12.25
2022-11-12T21:37:06.451Z,12.13
2022-11-12T21:42:08.797Z,12.16
2022-11-12T21:47:11.292Z,12.35
2022-11-12T21:52:13.542Z,12.42
2022-11-12T21:57:18.716Z,12.46
2022-11-12T22:02:21.288Z,12.58
2022-11-12T22:07:23.607Z,12.58
2022-11-12T22:12:25.902Z,12.60
2022-11-12T22:17:28.261Z,12.63
2022-11-12T22:22:30.431Z,12.39
2022-11-12T22:27:34.193Z,12.59
2022-11-12T22:32:36.378Z,12.60
2022-11-12T22:37:38.574Z,12.68
2022-11-12T22:42:40.742Z,12.61
2022-11-12T22:47:42.917Z,12.46
2022-11-12T22:52:50.006Z,12.73
2022-11-12T22:57:52.458Z,12.60
2022-11-12T23:02:54.705Z,12.83
2022-11-12T23:07:56.910Z,12.72
2022-11-12T23:12:59.099Z,12.61
2022-11-12T23:18:01.272Z,12.57
2022-11-12T23:23:03.544Z,12.42
2022-11-12T23:28:08.244Z,12.38
2022-11-12T23:33:10.746Z,12.47
2022-11-12T23:38:13.142Z,12.46
2022-11-12T23:43:15.463Z,12.03
2022-11-12T23:48:18.668Z,12.23
2022-11-12T23:53:20.991Z,12.24
2022-11-12T23:58:23.311Z,12.32
